Home > Products > Valid Products > TAF

000
FTUS43 KLMK 222300
TAFSDF
TAF
KSDF 222322Z 2300/2406 22005KT P6SM FEW060
     FM231400 27006KT P6SM FEW050 SCT150
     FM232000 30007KT P6SM VCTS BKN040CB BKN150
     FM240000 35006KT P6SM SCT035 SCT150=



000
FTUS43 KLMK 222300
TAFBWG
TAF
KBWG 222322Z 2300/2324 20004KT P6SM FEW060
     FM230800 VRB03KT 4SM BR FEW250
     FM231400 24006KT P6SM FEW040
     FM232000 27007KT P6SM VCTS BKN040CB BKN150=



000
FTUS43 KLMK 222300
TAFLEX
TAF
KLEX 222322Z 2300/2324 22005KT P6SM FEW050
     FM230900 19004KT 4SM BR FEW250
     FM231400 27007KT P6SM SCT040 SCT150
     FM231900 29007KT P6SM VCTS BKN040CB BKN150=



000
FTUS43 KLMK 221700
TAFLEX
TAF
KLEX 221731Z 2218/2318 22005KT P6SM SCT040
     FM231000 19004KT 6SM BR SCT250
     FM231300 25007KT P6SM SCT050=



000
FTUS43 KLMK 221700
TAFSDF
TAF
KSDF 221731Z 2218/2324 22006KT P6SM SCT040
     FM231300 27006KT P6SM SCT050 BKN150
     FM231800 29007KT P6SM VCSH BKN050=



000
FTUS43 KLMK 221700
TAFBWG
TAF
KBWG 221731Z 2218/2318 16006KT P6SM SCT050
     FM230900 VRB03KT 5SM BR SCT250
     FM231400 24006KT P6SM SCT050 BKN250=



000
FTUS43 KLMK 221100
TAFSDF
TAF
KSDF 221128Z 2212/2318 VRB03KT 5SM BR FEW060
     FM221300 21006KT P6SM SCT050
     FM231200 21005KT P6SM SCT050 BKN150=



000
FTUS43 KLMK 221100
TAFLEX
TAF
KLEX 221128Z 2212/2312 VRB03KT P6SM FEW050
     FM221500 22005KT P6SM SCT050=



000
FTUS43 KLMK 221100
TAFBWG
TAF
KBWG 221128Z 2212/2312 VRB03KT P6SM FEW060
     FM221600 20005KT P6SM SCT050=



000
FTUS43 KLMK 221000 AAA
TAFLEX
TAF AMD
KLEX 221017Z 2210/2306 VRB03KT 6SM BR FEW050
     FM221300 22005KT P6SM SCT050=



000
FTUS43 KLMK 221000 AAA
TAFBWG
TAF AMD
KBWG 221017Z 2210/2306 VRB03KT 6SM BR SCT060
     FM221300 19004KT P6SM FEW040=



000
FTUS43 KLMK 220500
TAFBWG
TAF
KBWG 220520Z 2206/2306 VRB03KT P6SM SCT060
      TEMPO 2210/2213 4SM BR
     FM221500 19004KT P6SM FEW040=



000
FTUS43 KLMK 220500
TAFLEX
TAF
KLEX 220520Z 2206/2306 VRB03KT P6SM SCT050
     FM220900 VRB03KT 4SM BR FEW050
     FM221300 22005KT P6SM SCT050=



000
FTUS43 KLMK 220500
TAFSDF
TAF
KSDF 220520Z 2206/2312 VRB04KT P6SM SCT050
     FM221600 21006KT P6SM SCT050=



000
FTUS43 KLMK 212300
TAFSDF
TAF
KSDF 212320Z 2200/2306 VRB03KT P6SM FEW050
     FM221600 20005KT P6SM SCT050=



000
FTUS43 KLMK 212300
TAFBWG
TAF
KBWG 212320Z 2200/2224 VRB03KT P6SM FEW050
      TEMPO 2209/2213 4SM BR
     FM221500 18004KT P6SM FEW040=



000
FTUS43 KLMK 212300
TAFLEX
TAF
KLEX 212320Z 2200/2224 07005KT P6SM FEW050
     FM220600 VRB03KT P6SM SCT050
     FM220900 VRB03KT 3SM BR FEW050
     FM221300 17004KT P6SM SCT040=



000
FTUS43 KLMK 211700
TAFBWG
TAF
KBWG 211720Z 2118/2218 10005KT P6SM SCT030
     FM220800 00000KT 4SM BR SKC
     FM221200 20004KT P6SM FEW035=



000
FTUS43 KLMK 211700
TAFLEX
TAF
KLEX 211720Z 2118/2218 07005KT P6SM SCT025
     FM220700 VRB03KT 3SM BR SKC
     FM221300 17005KT P6SM SCT040=



000
FTUS43 KLMK 211700
TAFSDF
TAF
KSDF 211720Z 2118/2224 06005KT P6SM SCT030
     FM220200 VRB03KT P6SM SKC
     FM221400 20005KT P6SM SCT040=



000
FTUS43 KLMK 211100
TAFBWG
TAF
KBWG 211120Z 2112/2212 00000KT 5SM BR SKC
     FM211330 08005KT P6SM SCT050
     FM220100 00000KT P6SM SKC
      TEMPO 2208/2212 4SM BR=



000
FTUS43 KLMK 211100
TAFSDF
TAF
KSDF 211120Z 2112/2218 VRB03KT 5SM BR SKC
     FM211300 06005KT P6SM SCT050
     FM220200 VRB03KT P6SM SKC
     FM221400 18005KT P6SM SCT040=



000
FTUS43 KLMK 211100
TAFLEX
TAF
KLEX 211120Z 2112/2212 VRB03KT 1/4SM FG BKN001
     FM211300 00000KT 2SM BR SCT005
     FM211400 00000KT 4SM BR FEW006
     FM211500 07005KT P6SM SCT050
     FM220100 VRB03KT P6SM SKC=



000
FTUS43 KLMK 210900 AAA
TAFBWG
TAF AMD
KBWG 210903Z 2109/2206 00000KT P6SM SKC
      TEMPO 2110/2113 4SM BR SCT015
     FM211400 06005KT P6SM SCT050
     FM220100 00000KT P6SM SKC=



000
FTUS43 KLMK 210600 AAA
TAFLEX
TAF AMD
KLEX 210652Z 2107/2206 00000KT 1/4SM FG BKN001
     FM211200 00000KT 2SM BR SCT005
     FM211300 00000KT 4SM BR FEW006
     FM211400 07005KT P6SM SCT050
     FM220100 VRB03KT P6SM SKC=



000
FTUS43 KLMK 210500 CCA
TAFLEX
TAF COR
KLEX 210554Z 2106/2206 00000KT 1/2SM FG SCT002
      TEMPO 2106/2109 2SM BR SCT005
     FM211230 00000KT 4SM BR FEW006
     FM211400 07005KT P6SM SCT050
     FM220100 VRB03KT P6SM SKC=



000
FTUS43 KLMK 210500
TAFLEX
TAF
KLEX 210536Z 2106/2206 00000KT 1/2SM FG SCT002
      TEMPO 2106/2109 1 1/2SM BR SCT005
     FM211230 00000KT 4SM BR FEW006
     FM211400 07005KT P6SM SCT050
     FM220100 VRB03KT P6SM SKC=



000
FTUS43 KLMK 210500
TAFBWG
TAF
KBWG 210536Z 2106/2206 00000KT P6SM SKC
     FM210800 00000KT 4SM BR SCT015
      TEMPO 2110/2113 2SM BR SCT006
     FM211400 06005KT P6SM SCT050
     FM220100 00000KT P6SM SKC=



000
FTUS43 KLMK 210500
TAFSDF
TAF
KSDF 210536Z 2106/2212 02004KT P6SM SCT040
     FM211000 VRB03KT 5SM BR SCT015
     FM211300 06005KT P6SM SCT050
     FM220200 VRB03KT P6SM SKC=



000
FTUS43 KLMK 202300
TAFBWG
TAF
KBWG 202324Z 2100/2124 VRB03KT P6SM SCT040
     FM210800 00000KT 4SM BR SCT015
      TEMPO 2110/2113 2SM BR BKN006
     FM211500 02005KT P6SM SCT050=



000
FTUS43 KLMK 202300
TAFLEX
TAF
KLEX 202324Z 2100/2124 04004KT P6SM BKN050
     FM210800 VRB03KT 4SM BR SCT015
      TEMPO 2109/2113 2SM BR BKN007
     FM211400 04005KT P6SM SCT050=



000
FTUS43 KLMK 202300
TAFSDF
TAF
KSDF 202324Z 2100/2206 01005KT P6SM SCT040
     FM210800 VRB04KT 6SM BR BKN015
     FM211300 06005KT P6SM SCT050=



000
FTUS43 KLMK 202000 AAA
TAFLEX
TAF AMD
KLEX 202028Z 2020/2118 VRB04KT P6SM SCT020 OVC040
      TEMPO 2020/2021 1SM +RA BKN025 OVC035
     FM210800 VRB04KT 4SM BR SCT015 BKN025
     FM211400 VRB04KT P6SM SCT040=



000
FTUS43 KLMK 201700
TAFLEX
TAF
KLEX 201724Z 2018/2118 VRB04KT P6SM SCT020 OVC040
     FM210800 VRB04KT 4SM BR SCT015 BKN025
     FM211400 VRB04KT P6SM SCT040=



000
FTUS43 KLMK 201700
TAFBWG
TAF
KBWG 201724Z 2018/2118 36004KT P6SM SCT025 BKN035
     FM210800 VRB03KT 4SM BR SCT015
     FM211500 VRB04KT P6SM FEW040=



000
FTUS43 KLMK 201700
TAFSDF
TAF
KSDF 201724Z 2018/2124 VRB04KT P6SM SCT025 BKN035
     FM210800 VRB04KT 6SM BR SCT015
     FM211400 VRB04KT P6SM FEW040 SCT250=



000
FTUS43 KLMK 201400 AAA
TAFSDF
TAF AMD
KSDF 201418Z 2014/2118 04004KT P6SM FEW012 BKN025
     FM201600 VRB04KT P6SM SCT025 BKN035
     FM210800 VRB04KT P6SM SCT015=



000
FTUS43 KLMK 201100
TAFBWG
TAF
KBWG 201130Z 2012/2112 00000KT 2SM BR BKN002 OVC007
     FM201400 VRB03KT 5SM BR BKN008
     FM201600 36003KT 6SM BR SCT009 BKN015
     FM201700 36004KT P6SM BKN025
     FM201800 36004KT P6SM SCT025 BKN040
     FM210800 VRB04KT P6SM SCT015=



000
FTUS43 KLMK 201100
TAFSDF
TAF
KSDF 201130Z 2012/2118 VRB03KT P6SM BKN009
     FM201400 VRB04KT P6SM BKN012
     FM201600 04004KT P6SM BKN025
     FM201700 VRB04KT P6SM SCT025 BKN040
     FM210800 VRB04KT P6SM SCT015=



000
FTUS43 KLMK 201100
TAFLEX
TAF
KLEX 201130Z 2012/2112 VRB03KT 2SM BR VCSH OVC004
     FM201400 VRB03KT 6SM BR VCSH OVC007
     FM201600 VRB03KT P6SM VCSH BKN015
     FM201800 VRB04KT P6SM VCSH BKN025
     FM201900 VRB04KT P6SM VCSH SCT025 BKN040
     FM210800 VRB04KT 5SM BR SCT015 BKN025=



000
FTUS43 KLMK 201000 AAB
TAFSDF
TAF AMD
KSDF 201025Z 2010/2112 VRB03KT 6SM BR VCSH SCT009 BKN015 OVC025
      TEMPO 2010/2012 5SM BR BKN009
     FM201500 04004KT P6SM BKN025
     FM201800 VRB04KT P6SM SCT025 BKN040=



000
FTUS43 KLMK 200700 AAA
TAFSDF
TAF AMD
KSDF 200732Z 2008/2112 VRB03KT 6SM BR VCSH SCT015 BKN025
      TEMPO 2008/2012 5SM BR BKN015
     FM201500 04004KT P6SM BKN025
     FM201800 VRB04KT P6SM SCT025 BKN040=



000
FTUS43 KLMK 200500
TAFSDF
TAF
KSDF 200533Z 2006/2112 VRB03KT P6SM BKN025
     FM200700 VRB03KT 6SM BR SCT015 BKN025
      TEMPO 2009/2013 4SM BR BKN015
     FM201500 04004KT P6SM BKN025
     FM201800 VRB04KT P6SM SCT025 BKN040=



000
FTUS43 KLMK 200500
TAFBWG
TAF
KBWG 200533Z 2006/2106 00000KT 5SM BR OVC007
     FM200900 00000KT 2SM BR BKN004 OVC007
     FM201400 VRB03KT 5SM BR BKN009
     FM201600 36003KT 6SM BR SCT009 BKN015
     FM201800 36004KT P6SM BKN025
     FM201900 36004KT P6SM SCT025 BKN040=



000
FTUS43 KLMK 200500
TAFLEX
TAF
KLEX 200533Z 2006/2106 VRB03KT 3SM BR VCSH BKN006 OVC012
     FM200900 VRB03KT 2SM BR VCSH BKN004 OVC009
     FM201300 VRB03KT 5SM BR VCSH BKN008 OVC015
     FM201500 VRB03KT P6SM VCSH BKN015
     FM201700 VRB04KT P6SM VCSH BKN025
     FM201900 VRB04KT P6SM VCSH SCT025 BKN040=



000
FTUS43 KLMK 200400 AAA
TAFLEX
TAF AMD
KLEX 200418Z 2004/2024 VRB03KT 4SM BR VCSH BKN007 OVC012
     FM200900 VRB03KT 3SM BR VCSH BKN004
     FM201300 VRB03KT 5SM BR VCSH BKN008 OVC015
     FM201500 VRB03KT P6SM BKN015=



000
FTUS43 KLMK 200100 AAA
TAFSDF
TAF AMD
KSDF 200107Z 2001/2106 05005KT P6SM SCT023 BKN040
      TEMPO 2001/2005 BKN023
     FM200500 VRB03KT 6SM BR SCT015 BKN022
     FM200800 VRB03KT 4SM BR SCT008 BKN015
     FM201500 04004KT P6SM BKN022
     FM201800 VRB04KT P6SM SCT025 BKN040=



    US Dept of Commerce
    National Oceanic and Atmospheric Administration
    National Weather Service
    1325 East West Highway
    Silver Spring, MD 20910
    Page Author: NWS Internet Services Team
Disclaimer
Information Quality
Credits
Glossary
Privacy Policy
Freedom of Information Act (FOIA)
About Us
Career Opportunities